Time;durP1;ratioP1;P1;durP2;ratioP2;P2;SDS_P1;SDS_P2;PMS_P1;PMS_P2;Temp;Humidity;BMP_temperature;BMP_pressure;BME280_temperature;BME280_humidity;BME280_pressure;Samples;Min_cycle;Max_cycle;Signal;HPM_P1;HPM_P2
2024/01/30 00:02:17;;;;;;;40.00;16.63;;;;;;;;;;5047435;28;20223;-56
2024/01/30 00:04:42;;;;;;;36.07;15.97;;;;;;;;;;5032194;28;20195;-57
2024/01/30 00:07:08;;;;;;;33.37;15.87;;;;;;;;;;5035995;28;20175;-58
2024/01/30 00:09:34;;;;;;;39.93;17.27;;;;;;;;;;5037355;28;20212;-57
2024/01/30 00:12:00;;;;;;;36.60;16.70;;;;;;;;;;5026125;28;20189;-57
2024/01/30 00:14:26;;;;;;;41.33;16.93;;;;;;;;;;5045734;28;20620;-58
2024/01/30 00:16:52;;;;;;;34.97;16.33;;;;;;;;;;5023592;28;20184;-58
2024/01/30 00:19:18;;;;;;;32.33;16.10;;;;;;;;;;5030370;28;20741;-57
2024/01/30 00:21:44;;;;;;;38.67;16.37;;;;;;;;;;5031692;28;20560;-54
2024/01/30 00:24:10;;;;;;;36.10;15.33;;;;;;;;;;5019872;28;20536;-59
2024/01/30 00:26:36;;;;;;;32.30;16.07;;;;;;;;;;5051228;28;20183;-59
2024/01/30 00:29:02;;;;;;;31.97;15.07;;;;;;;;;;5043534;28;20218;-58
2024/01/30 00:31:29;;;;;;;32.90;15.07;;;;;;;;;;5051813;28;20237;-57
2024/01/30 00:33:55;;;;;;;35.67;15.37;;;;;;;;;;5047687;28;20193;-57
2024/01/30 00:36:21;;;;;;;32.47;14.87;;;;;;;;;;5022637;28;20195;-58
2024/01/30 00:38:47;;;;;;;33.03;16.10;;;;;;;;;;5033303;28;20227;-55
2024/01/30 00:41:13;;;;;;;29.20;14.10;;;;;;;;;;5028954;28;20225;-56
2024/01/30 00:43:39;;;;;;;31.80;14.60;;;;;;;;;;5051509;28;20264;-59
2024/01/30 00:46:05;;;;;;;29.37;13.73;;;;;;;;;;5044196;28;20192;-58
2024/01/30 00:48:31;;;;;;;31.73;13.53;;;;;;;;;;5025421;28;20682;-58
2024/01/30 00:50:57;;;;;;;28.00;14.30;;;;;;;;;;5035041;28;20187;-56
2024/01/30 00:53:23;;;;;;;36.07;16.00;;;;;;;;;;5023513;28;20744;-58
2024/01/30 00:55:49;;;;;;;34.53;15.90;;;;;;;;;;5037680;28;20266;-54
2024/01/30 00:58:15;;;;;;;33.10;15.20;;;;;;;;;;5042151;28;20201;-57
2024/01/30 01:00:41;;;;;;;38.37;15.30;;;;;;;;;;5019993;28;20632;-59
2024/01/30 01:03:07;;;;;;;33.40;15.23;;;;;;;;;;5031479;28;20184;-58
2024/01/30 01:05:33;;;;;;;33.00;15.30;;;;;;;;;;5029695;28;20179;-58
2024/01/30 01:07:59;;;;;;;38.17;16.97;;;;;;;;;;5048536;28;20207;-56
2024/01/30 01:10:25;;;;;;;34.70;15.87;;;;;;;;;;5045379;28;20194;-54
2024/01/30 01:12:51;;;;;;;36.77;16.60;;;;;;;;;;5030307;28;20190;-58
2024/01/30 01:15:17;;;;;;;39.27;17.03;;;;;;;;;;5029124;28;20191;-57
2024/01/30 01:17:43;;;;;;;35.97;15.73;;;;;;;;;;5015942;28;20224;-57
2024/01/30 01:20:10;;;;;;;31.83;14.90;;;;;;;;;;5019200;28;20223;-56
2024/01/30 01:22:38;;;;;;;32.80;14.73;;;;;;;;;;5027561;28;20659;-59
2024/01/30 01:25:06;;;;;;;35.50;14.57;;;;;;;;;;5041603;28;20179;-57
2024/01/30 01:27:34;;;;;;;38.90;15.00;;;;;;;;;;5002261;28;20188;-58
2024/01/30 01:30:00;;;;;;;35.23;15.73;;;;;;;;;;5016120;28;20251;-60
2024/01/30 01:32:26;;;;;;;33.03;14.87;;;;;;;;;;5020536;28;20570;-58
2024/01/30 01:34:52;;;;;;;35.70;14.87;;;;;;;;;;5000664;28;20665;-55
2024/01/30 01:37:18;;;;;;;30.73;14.53;;;;;;;;;;5031683;28;20184;-55
2024/01/30 01:39:44;;;;;;;28.57;15.00;;;;;;;;;;5014279;28;20721;-55
2024/01/30 01:42:09;;;;;;;32.90;15.57;;;;;;;;;;5018515;28;20206;-59
2024/01/30 01:44:35;;;;;;;37.33;16.37;;;;;;;;;;5010903;28;20193;-57
2024/01/30 01:47:01;;;;;;;32.63;16.07;;;;;;;;;;5040186;28;20240;-58
2024/01/30 01:49:28;;;;;;;36.17;15.13;;;;;;;;;;5050263;28;20595;-55
2024/01/30 01:51:55;;;;;;;33.30;15.40;;;;;;;;;;5041921;28;20732;-56
2024/01/30 01:54:21;;;;;;;34.50;15.53;;;;;;;;;;5034116;28;20642;-57
2024/01/30 01:56:47;;;;;;;37.57;14.40;;;;;;;;;;5033052;28;20184;-58
2024/01/30 01:59:13;;;;;;;29.47;13.70;;;;;;;;;;5043020;28;20297;-53
2024/01/30 02:01:41;;;;;;;29.97;14.17;;;;;;;;;;5034056;28;20183;-56
2024/01/30 02:04:07;;;;;;;31.60;14.23;;;;;;;;;;5043735;28;20548;-57
2024/01/30 02:06:35;;;;;;;36.13;14.60;;;;;;;;;;5025170;28;20183;-56
2024/01/30 02:09:01;;;;;;;36.20;15.23;;;;;;;;;;5038479;28;20222;-56
2024/01/30 02:11:27;;;;;;;36.63;15.67;;;;;;;;;;5036776;28;20187;-59
2024/01/30 02:13:53;;;;;;;36.57;15.67;;;;;;;;;;5025560;28;20648;-58
2024/01/30 02:16:19;;;;;;;32.00;15.23;;;;;;;;;;5010659;28;20175;-54
2024/01/30 02:18:47;;;;;;;31.57;13.40;;;;;;;;;;5021344;28;20589;-58
2024/01/30 02:21:14;;;;;;;34.07;15.10;;;;;;;;;;5014944;28;20258;-57
2024/01/30 02:23:41;;;;;;;32.00;14.37;;;;;;;;;;5030625;28;20179;-58
2024/01/30 02:26:07;;;;;;;35.13;14.70;;;;;;;;;;5043076;28;20231;-57
2024/01/30 02:28:33;;;;;;;35.20;14.70;;;;;;;;;;5041267;28;20214;-56
2024/01/30 02:30:59;;;;;;;31.90;14.57;;;;;;;;;;5051180;28;20624;-59
2024/01/30 02:33:25;;;;;;;30.50;14.03;;;;;;;;;;5022533;28;20402;-58
2024/01/30 02:35:51;;;;;;;31.60;13.97;;;;;;;;;;5020598;28;20652;-58
2024/01/30 02:38:17;;;;;;;31.97;14.43;;;;;;;;;;5029405;28;20266;-56
2024/01/30 02:40:43;;;;;;;38.40;15.13;;;;;;;;;;5035865;28;20184;-57
2024/01/30 02:43:09;;;;;;;35.53;14.90;;;;;;;;;;5035292;28;20270;-54
2024/01/30 02:45:35;;;;;;;30.47;14.73;;;;;;;;;;5044185;28;20651;-56
2024/01/30 02:48:01;;;;;;;32.73;13.90;;;;;;;;;;5048966;28;20234;-56
2024/01/30 02:50:27;;;;;;;33.63;15.13;;;;;;;;;;5026908;28;20663;-57
2024/01/30 02:52:53;;;;;;;39.93;15.87;;;;;;;;;;5036096;28;20185;-54
2024/01/30 02:55:19;;;;;;;30.03;14.50;;;;;;;;;;5024429;28;20529;-57
2024/01/30 02:57:45;;;;;;;35.33;13.80;;;;;;;;;;5025521;28;20260;-58
2024/01/30 03:00:11;;;;;;;29.93;13.80;;;;;;;;;;5021864;28;20197;-54
2024/01/30 03:02:37;;;;;;;36.13;14.57;;;;;;;;;;5045252;28;20236;-58
2024/01/30 03:05:04;;;;;;;32.53;14.97;;;;;;;;;;5016216;28;20512;-58
2024/01/30 03:07:30;;;;;;;28.27;13.20;;;;;;;;;;5049007;28;20340;-59
2024/01/30 03:09:56;;;;;;;34.00;14.57;;;;;;;;;;5040933;28;20223;-57
2024/01/30 03:12:22;;;;;;;29.43;14.37;;;;;;;;;;5027495;28;20419;-56
2024/01/30 03:14:49;;;;;;;31.37;13.10;;;;;;;;;;5029365;28;20246;-54
2024/01/30 03:17:15;;;;;;;32.23;13.93;;;;;;;;;;5024431;28;20771;-53
2024/01/30 03:19:41;;;;;;;32.03;14.30;;;;;;;;;;5025404;28;20453;-57
2024/01/30 03:22:07;;;;;;;30.63;14.10;;;;;;;;;;5042276;28;20176;-57
2024/01/30 03:24:33;;;;;;;34.20;14.50;;;;;;;;;;5025992;28;20176;-57
2024/01/30 03:26:59;;;;;;;32.67;14.97;;;;;;;;;;5037944;28;20838;-55
2024/01/30 03:29:25;;;;;;;32.80;14.50;;;;;;;;;;5040771;28;20589;-58
2024/01/30 03:31:51;;;;;;;30.53;14.07;;;;;;;;;;5016268;28;20191;-56
2024/01/30 03:34:17;;;;;;;37.00;15.27;;;;;;;;;;5044157;28;20695;-57
2024/01/30 03:36:43;;;;;;;33.97;14.43;;;;;;;;;;5036634;28;20183;-59
2024/01/30 03:39:09;;;;;;;33.00;15.63;;;;;;;;;;5041903;28;20296;-57
2024/01/30 03:41:36;;;;;;;41.80;16.10;;;;;;;;;;5023795;28;20183;-57
2024/01/30 03:44:02;;;;;;;43.53;15.60;;;;;;;;;;5027497;28;20200;-53
2024/01/30 03:46:28;;;;;;;37.83;16.10;;;;;;;;;;5009426;28;20190;-54
2024/01/30 03:48:54;;;;;;;34.30;14.97;;;;;;;;;;5025457;28;20227;-57
2024/01/30 03:51:20;;;;;;;40.23;15.47;;;;;;;;;;5035876;28;20206;-57
2024/01/30 03:53:46;;;;;;;34.43;15.40;;;;;;;;;;5040073;28;20639;-57
2024/01/30 03:56:13;;;;;;;37.17;15.77;;;;;;;;;;5024172;28;20676;-57
2024/01/30 03:58:39;;;;;;;33.37;15.20;;;;;;;;;;5035794;28;20586;-58
2024/01/30 04:01:05;;;;;;;34.60;15.30;;;;;;;;;;5035508;28;20189;-55
2024/01/30 04:03:31;;;;;;;35.57;15.97;;;;;;;;;;5046123;28;20267;-53
2024/01/30 04:05:57;;;;;;;36.30;16.03;;;;;;;;;;5025415;28;20275;-54
2024/01/30 04:08:23;;;;;;;48.47;17.37;;;;;;;;;;5052015;28;20207;-55
2024/01/30 04:10:49;;;;;;;38.77;16.23;;;;;;;;;;5052130;28;20631;-55
2024/01/30 04:13:15;;;;;;;48.20;16.37;;;;;;;;;;5052285;28;20183;-54
2024/01/30 04:15:41;;;;;;;34.50;15.53;;;;;;;;;;5043275;28;20391;-54
2024/01/30 04:18:07;;;;;;;39.67;15.97;;;;;;;;;;5032522;28;20229;-53
2024/01/30 04:20:33;;;;;;;39.40;15.43;;;;;;;;;;5030670;28;20913;-55
2024/01/30 04:22:59;;;;;;;33.40;14.93;;;;;;;;;;5043535;28;20187;-56
2024/01/30 04:25:25;;;;;;;39.87;15.70;;;;;;;;;;5040073;28;20231;-56
2024/01/30 04:27:51;;;;;;;37.53;15.70;;;;;;;;;;5002490;28;20191;-56
2024/01/30 04:30:17;;;;;;;32.27;14.90;;;;;;;;;;5021164;28;20217;-55
2024/01/30 04:32:43;;;;;;;32.50;15.10;;;;;;;;;;5043586;28;20191;-54
2024/01/30 04:35:09;;;;;;;32.03;14.67;;;;;;;;;;5034952;28;20186;-59
2024/01/30 04:37:35;;;;;;;31.43;13.90;;;;;;;;;;5037304;28;20226;-58
2024/01/30 04:40:02;;;;;;;30.13;14.10;;;;;;;;;;5030653;28;20669;-59
2024/01/30 04:42:28;;;;;;;36.87;15.00;;;;;;;;;;5039885;28;20441;-53
2024/01/30 04:44:54;;;;;;;37.10;14.97;;;;;;;;;;5021859;28;20431;-56
2024/01/30 04:47:20;;;;;;;35.77;14.90;;;;;;;;;;5016525;28;20525;-55
2024/01/30 04:49:46;;;;;;;37.40;15.20;;;;;;;;;;5039729;28;20340;-55
2024/01/30 04:52:13;;;;;;;33.60;13.83;;;;;;;;;;5019675;28;20683;-54
2024/01/30 04:54:39;;;;;;;34.43;14.83;;;;;;;;;;5043183;28;20175;-54
2024/01/30 04:57:09;;;;;;;33.57;14.50;;;;;;;;;;5018020;28;20186;-58
2024/01/30 04:59:35;;;;;;;34.63;14.07;;;;;;;;;;5020965;28;20231;-58
2024/01/30 05:02:01;;;;;;;38.20;14.33;;;;;;;;;;5024516;28;20191;-58
2024/01/30 05:04:27;;;;;;;43.27;15.50;;;;;;;;;;5033232;28;20212;-56
2024/01/30 05:06:53;;;;;;;36.37;13.90;;;;;;;;;;5048157;28;20187;-57
2024/01/30 05:09:19;;;;;;;37.33;15.17;;;;;;;;;;5019914;28;20224;-58
2024/01/30 05:11:45;;;;;;;35.67;15.63;;;;;;;;;;5027769;28;20187;-57
2024/01/30 05:14:11;;;;;;;35.57;14.60;;;;;;;;;;5039443;28;20188;-57
2024/01/30 05:16:38;;;;;;;39.40;14.20;;;;;;;;;;5038724;28;20187;-59
2024/01/30 05:19:04;;;;;;;34.43;15.30;;;;;;;;;;5047390;28;20595;-57
2024/01/30 05:21:30;;;;;;;35.60;14.73;;;;;;;;;;5029165;28;20933;-56
2024/01/30 05:23:56;;;;;;;42.10;14.77;;;;;;;;;;5042495;28;20329;-58
2024/01/30 05:26:22;;;;;;;43.73;15.20;;;;;;;;;;5045204;28;20569;-57
2024/01/30 05:28:48;;;;;;;34.33;13.13;;;;;;;;;;5031111;28;20245;-59
2024/01/30 05:31:14;;;;;;;36.17;14.30;;;;;;;;;;5050766;28;20183;-55
2024/01/30 05:33:41;;;;;;;42.87;16.77;;;;;;;;;;5042589;28;20193;-58
2024/01/30 05:36:07;;;;;;;33.20;14.40;;;;;;;;;;5041824;28;20191;-54
2024/01/30 05:38:33;;;;;;;33.20;14.47;;;;;;;;;;5029063;28;20278;-53
2024/01/30 05:40:59;;;;;;;35.37;14.33;;;;;;;;;;5035486;28;20192;-54
2024/01/30 05:43:25;;;;;;;38.73;16.13;;;;;;;;;;5038216;28;20569;-53
2024/01/30 05:45:52;;;;;;;35.83;14.67;;;;;;;;;;5032455;28;20186;-53
2024/01/30 05:48:18;;;;;;;40.27;15.27;;;;;;;;;;5017650;28;20200;-53
2024/01/30 05:50:45;;;;;;;37.07;14.70;;;;;;;;;;5026794;28;20240;-56
2024/01/30 05:53:11;;;;;;;33.53;13.67;;;;;;;;;;5047067;28;20234;-58
2024/01/30 05:55:37;;;;;;;30.93;13.33;;;;;;;;;;5045226;28;20190;-55
2024/01/30 05:58:03;;;;;;;37.03;15.23;;;;;;;;;;5031031;28;20711;-58
2024/01/30 06:00:29;;;;;;;33.67;13.40;;;;;;;;;;5022163;28;20536;-54
2024/01/30 06:02:55;;;;;;;39.80;14.47;;;;;;;;;;5036933;28;20183;-54
2024/01/30 06:05:21;;;;;;;37.00;14.60;;;;;;;;;;5031643;28;20666;-55
2024/01/30 06:07:47;;;;;;;37.90;15.23;;;;;;;;;;5022078;28;20214;-56
2024/01/30 06:10:13;;;;;;;35.70;14.00;;;;;;;;;;5034304;28;20215;-54
2024/01/30 06:12:40;;;;;;;38.03;14.40;;;;;;;;;;5041568;28;20186;-54
2024/01/30 06:15:06;;;;;;;38.10;15.13;;;;;;;;;;5014036;28;20295;-53
2024/01/30 06:17:32;;;;;;;33.83;13.77;;;;;;;;;;5031325;28;20678;-53
2024/01/30 06:19:59;;;;;;;38.13;15.00;;;;;;;;;;5010435;28;20730;-54
2024/01/30 06:22:25;;;;;;;37.63;13.87;;;;;;;;;;5026728;28;20271;-57
2024/01/30 06:24:51;;;;;;;41.27;16.20;;;;;;;;;;5049620;28;20275;-54
2024/01/30 06:27:20;;;;;;;38.60;16.10;;;;;;;;;;5028514;28;20183;-57
2024/01/30 06:29:46;;;;;;;42.13;15.07;;;;;;;;;;5046259;28;20280;-58
2024/01/30 06:32:12;;;;;;;43.67;15.60;;;;;;;;;;5031609;28;20179;-54
2024/01/30 06:34:39;;;;;;;48.53;16.77;;;;;;;;;;5035014;28;20431;-53
2024/01/30 06:37:06;;;;;;;39.07;15.93;;;;;;;;;;5033876;28;20738;-54
2024/01/30 06:39:32;;;;;;;42.17;15.70;;;;;;;;;;5039069;28;20203;-53
2024/01/30 06:41:58;;;;;;;48.73;16.00;;;;;;;;;;5039643;28;20318;-57
2024/01/30 06:44:24;;;;;;;44.90;16.40;;;;;;;;;;5043137;28;20187;-56
2024/01/30 06:46:50;;;;;;;45.27;15.40;;;;;;;;;;5031879;28;20187;-57
2024/01/30 06:49:15;;;;;;;43.13;16.17;;;;;;;;;;5025346;28;20219;-58
2024/01/30 06:51:41;;;;;;;46.20;17.37;;;;;;;;;;5008371;28;20184;-55
2024/01/30 06:54:08;;;;;;;39.90;16.20;;;;;;;;;;5013047;28;20213;-57
2024/01/30 06:56:34;;;;;;;44.90;17.43;;;;;;;;;;5035546;28;20616;-55
2024/01/30 06:59:00;;;;;;;41.97;15.47;;;;;;;;;;5012316;28;20730;-55
2024/01/30 07:01:30;;;;;;;44.57;17.17;;;;;;;;;;5009704;28;20227;-56
2024/01/30 07:03:56;;;;;;;43.80;16.30;;;;;;;;;;5045101;28;20268;-54
2024/01/30 07:06:22;;;;;;;52.67;17.70;;;;;;;;;;5022486;28;20191;-58
2024/01/30 07:08:49;;;;;;;44.73;17.47;;;;;;;;;;5033912;28;20222;-56
2024/01/30 07:11:23;;;;;;;41.50;16.37;;;;;;;;;;5017186;28;20255;-55
2024/01/30 07:13:49;;;;;;;40.20;16.50;;;;;;;;;;5034962;28;20180;-56
2024/01/30 07:16:16;;;;;;;55.93;16.97;;;;;;;;;;5006516;28;20180;-56
2024/01/30 07:18:42;;;;;;;49.83;17.73;;;;;;;;;;5009324;28;20692;-54
2024/01/30 07:21:07;;;;;;;40.57;16.13;;;;;;;;;;5033898;28;20216;-54
2024/01/30 07:23:34;;;;;;;39.63;16.40;;;;;;;;;;5032313;28;20194;-55
2024/01/30 07:26:00;;;;;;;39.37;16.90;;;;;;;;;;5045902;28;20187;-56
2024/01/30 07:28:26;;;;;;;61.23;19.03;;;;;;;;;;5034362;28;20222;-57
2024/01/30 07:30:52;;;;;;;48.67;19.07;;;;;;;;;;5035967;28;20183;-55
2024/01/30 07:33:18;;;;;;;47.33;19.77;;;;;;;;;;5018780;28;20233;-57
2024/01/30 07:35:45;;;;;;;51.60;18.83;;;;;;;;;;5019105;28;20181;-54
2024/01/30 07:38:11;;;;;;;46.20;17.57;;;;;;;;;;5045194;28;20243;-55
2024/01/30 07:40:37;;;;;;;44.00;17.97;;;;;;;;;;5035663;28;20215;-57
2024/01/30 07:43:03;;;;;;;44.73;17.83;;;;;;;;;;5019841;28;20231;-54
2024/01/30 07:45:33;;;;;;;41.97;16.53;;;;;;;;;;5023603;28;20253;-56
2024/01/30 07:47:59;;;;;;;41.10;16.50;;;;;;;;;;5035193;28;20302;-58
2024/01/30 07:50:25;;;;;;;34.40;15.57;;;;;;;;;;5046232;28;20250;-53
2024/01/30 07:52:54;;;;;;;43.07;18.03;;;;;;;;;;5030964;28;20192;-52
2024/01/30 07:55:21;;;;;;;39.50;16.50;;;;;;;;;;5019712;28;20206;-53
2024/01/30 07:57:47;;;;;;;42.63;17.77;;;;;;;;;;5017798;28;20656;-57
2024/01/30 08:00:14;;;;;;;45.77;16.37;;;;;;;;;;5027465;28;20191;-55
2024/01/30 08:02:40;;;;;;;43.37;17.40;;;;;;;;;;5043513;28;20222;-61
2024/01/30 08:05:06;;;;;;;39.97;17.00;;;;;;;;;;5034610;28;20300;-54
2024/01/30 08:07:32;;;;;;;39.77;17.00;;;;;;;;;;5036400;28;20179;-56
2024/01/30 08:09:58;;;;;;;43.23;18.27;;;;;;;;;;5031521;28;20211;-58
2024/01/30 08:12:24;;;;;;;43.40;19.17;;;;;;;;;;5039803;28;20198;-55
2024/01/30 08:14:50;;;;;;;45.53;19.03;;;;;;;;;;5013791;28;20183;-56
2024/01/30 08:17:16;;;;;;;44.77;17.67;;;;;;;;;;5030469;28;20274;-58
2024/01/30 08:19:42;;;;;;;40.60;17.63;;;;;;;;;;5046731;28;20301;-57
2024/01/30 08:22:08;;;;;;;50.77;19.97;;;;;;;;;;5042799;28;20558;-54
2024/01/30 08:24:34;;;;;;;52.13;17.93;;;;;;;;;;5034890;28;20198;-58
2024/01/30 08:27:02;;;;;;;44.33;19.00;;;;;;;;;;5015829;28;20267;-54
2024/01/30 08:29:28;;;;;;;54.50;19.97;;;;;;;;;;5025378;28;20205;-57
2024/01/30 08:31:55;;;;;;;60.63;20.10;;;;;;;;;;5035824;28;20669;-55
2024/01/30 08:34:21;;;;;;;60.73;24.20;;;;;;;;;;5030630;28;20547;-57
2024/01/30 08:36:47;;;;;;;43.80;18.90;;;;;;;;;;5035358;28;20267;-58
2024/01/30 08:39:14;;;;;;;49.43;17.93;;;;;;;;;;5035740;28;20282;-57
2024/01/30 08:41:40;;;;;;;44.53;17.03;;;;;;;;;;5042063;28;20202;-56
2024/01/30 08:44:06;;;;;;;68.00;20.90;;;;;;;;;;5033838;28;20579;-58
2024/01/30 08:46:32;;;;;;;43.13;17.83;;;;;;;;;;5037548;28;20191;-57
2024/01/30 08:48:58;;;;;;;45.57;19.13;;;;;;;;;;5046323;28;20218;-58
2024/01/30 08:51:24;;;;;;;49.47;18.40;;;;;;;;;;5045653;28;20623;-55
2024/01/30 08:53:50;;;;;;;42.57;18.43;;;;;;;;;;5030571;28;20545;-57
2024/01/30 08:56:16;;;;;;;43.70;18.03;;;;;;;;;;5025851;28;20191;-58
2024/01/30 08:58:42;;;;;;;38.07;17.43;;;;;;;;;;5035561;28;20204;-59
2024/01/30 09:01:08;;;;;;;49.57;20.40;;;;;;;;;;5024505;28;20252;-58
2024/01/30 09:03:34;;;;;;;47.20;19.53;;;;;;;;;;5027549;28;20199;-59
2024/01/30 09:06:00;;;;;;;43.13;19.13;;;;;;;;;;5029683;28;20206;-57
2024/01/30 09:08:26;;;;;;;47.30;18.47;;;;;;;;;;5035283;28;20217;-59
2024/01/30 09:10:52;;;;;;;41.87;16.97;;;;;;;;;;5049500;28;20179;-55
2024/01/30 09:13:18;;;;;;;37.50;16.70;;;;;;;;;;5042731;28;20487;-54
2024/01/30 09:15:44;;;;;;;38.77;16.73;;;;;;;;;;5023596;28;20678;-57
2024/01/30 09:18:10;;;;;;;38.47;16.93;;;;;;;;;;5030036;28;20575;-52
2024/01/30 09:20:36;;;;;;;35.27;16.30;;;;;;;;;;5036972;28;20215;-53
2024/01/30 09:23:02;;;;;;;39.77;15.93;;;;;;;;;;5018735;28;20231;-53
2024/01/30 09:25:28;;;;;;;35.43;16.60;;;;;;;;;;5029072;28;20217;-52
2024/01/30 09:27:54;;;;;;;32.73;15.43;;;;;;;;;;5048066;28;20222;-55
2024/01/30 09:30:20;;;;;;;34.77;15.27;;;;;;;;;;5026458;28;20247;-53
2024/01/30 09:32:46;;;;;;;38.23;17.40;;;;;;;;;;5034342;28;20187;-57
2024/01/30 09:35:12;;;;;;;35.70;16.87;;;;;;;;;;5013309;28;20184;-54
2024/01/30 09:37:37;;;;;;;36.93;16.37;;;;;;;;;;5027883;28;20175;-56
2024/01/30 09:40:05;;;;;;;36.70;16.47;;;;;;;;;;5028724;28;20196;-52
2024/01/30 09:42:37;;;;;;;33.07;15.67;;;;;;;;;;5009923;28;20212;-54
2024/01/30 09:45:04;;;;;;;31.73;14.90;;;;;;;;;;5027861;28;20314;-55
2024/01/30 09:47:37;;;;;;;38.87;17.17;;;;;;;;;;5037579;28;20196;-56
2024/01/30 09:50:03;;;;;;;35.20;17.67;;;;;;;;;;5013166;28;20215;-58
2024/01/30 09:52:30;;;;;;;36.03;16.40;;;;;;;;;;5043803;28;20633;-54
2024/01/30 09:54:56;;;;;;;36.90;17.23;;;;;;;;;;5038522;28;20742;-53
2024/01/30 09:57:22;;;;;;;40.93;19.33;;;;;;;;;;5026549;28;20602;-56
2024/01/30 09:59:48;;;;;;;40.83;18.17;;;;;;;;;;5049069;28;20234;-59
2024/01/30 10:02:14;;;;;;;36.10;17.93;;;;;;;;;;5032984;28;20203;-56
2024/01/30 10:04:40;;;;;;;38.63;18.53;;;;;;;;;;5018416;28;20212;-56
2024/01/30 10:07:06;;;;;;;43.73;18.63;;;;;;;;;;5038941;28;20599;-55
2024/01/30 10:09:34;;;;;;;34.43;17.43;;;;;;;;;;5039129;28;20222;-56
2024/01/30 10:12:00;;;;;;;38.33;17.77;;;;;;;;;;5046971;28;20266;-55
2024/01/30 10:14:26;;;;;;;40.93;19.87;;;;;;;;;;5030832;28;20682;-57
2024/01/30 10:16:52;;;;;;;43.80;19.57;;;;;;;;;;5025718;28;20172;-55
2024/01/30 10:19:18;;;;;;;39.63;18.27;;;;;;;;;;5032954;28;20200;-57
2024/01/30 10:21:44;;;;;;;39.60;19.07;;;;;;;;;;5017725;28;20272;-53
2024/01/30 10:24:12;;;;;;;42.73;19.53;;;;;;;;;;5044070;28;20229;-56
2024/01/30 10:26:38;;;;;;;43.10;19.53;;;;;;;;;;5028293;28;20230;-58
2024/01/30 10:29:05;;;;;;;39.47;19.47;;;;;;;;;;5028705;28;20217;-56
2024/01/30 10:31:31;;;;;;;39.63;19.33;;;;;;;;;;5034082;28;20179;-54
2024/01/30 10:33:57;;;;;;;37.03;17.50;;;;;;;;;;5029185;28;20184;-54
2024/01/30 10:36:27;;;;;;;36.80;18.27;;;;;;;;;;5034772;28;20209;-55
2024/01/30 10:38:55;;;;;;;39.23;18.27;;;;;;;;;;5040402;28;20265;-53
2024/01/30 10:41:26;;;;;;;38.23;18.40;;;;;;;;;;5032747;28;20214;-53
2024/01/30 10:43:58;;;;;;;38.23;17.80;;;;;;;;;;5032136;28;20204;-55
2024/01/30 10:46:30;;;;;;;37.40;17.63;;;;;;;;;;5040030;28;20183;-56
2024/01/30 10:49:01;;;;;;;36.27;17.03;;;;;;;;;;5022717;28;20707;-57
2024/01/30 10:51:27;;;;;;;34.53;17.33;;;;;;;;;;5023584;28;20267;-57
2024/01/30 10:53:54;;;;;;;33.97;17.57;;;;;;;;;;5034894;28;20179;-56
2024/01/30 10:56:23;;;;;;;34.67;16.90;;;;;;;;;;5022053;28;20505;-58
2024/01/30 10:58:52;;;;;;;35.40;17.37;;;;;;;;;;5040149;28;20678;-58
2024/01/30 11:01:23;;;;;;;38.10;18.13;;;;;;;;;;5044912;28;20189;-58
2024/01/30 11:03:52;;;;;;;36.00;19.47;;;;;;;;;;5036903;28;20226;-56
2024/01/30 11:06:18;;;;;;;31.13;16.03;;;;;;;;;;5024867;28;20184;-58
2024/01/30 11:08:47;;;;;;;40.57;19.83;;;;;;;;;;5036648;28;20273;-60
2024/01/30 11:11:13;;;;;;;40.30;19.30;;;;;;;;;;5036203;28;20179;-59
2024/01/30 11:13:41;;;;;;;39.43;18.23;;;;;;;;;;5027617;28;20253;-57
2024/01/30 11:16:07;;;;;;;38.17;18.93;;;;;;;;;;5034783;28;20194;-55
2024/01/30 11:18:34;;;;;;;39.30;17.67;;;;;;;;;;5029857;28;20207;-59
2024/01/30 11:21:03;;;;;;;37.77;17.00;;;;;;;;;;5024362;28;20675;-57
2024/01/30 11:23:29;;;;;;;37.70;17.90;;;;;;;;;;5024285;28;20698;-56
2024/01/30 11:25:56;;;;;;;33.57;17.20;;;;;;;;;;5033235;28;20248;-58
2024/01/30 11:28:23;;;;;;;35.87;18.23;;;;;;;;;;5027288;28;20603;-58
2024/01/30 11:30:50;;;;;;;37.20;18.87;;;;;;;;;;5028842;28;20203;-59
2024/01/30 11:33:16;;;;;;;42.47;19.83;;;;;;;;;;5024337;28;20176;-56
2024/01/30 11:35:43;;;;;;;37.57;19.43;;;;;;;;;;5025005;28;20301;-58
2024/01/30 11:38:10;;;;;;;37.73;17.67;;;;;;;;;;5040037;28;20225;-58
2024/01/30 11:40:37;;;;;;;38.00;18.53;;;;;;;;;;5032888;28;20176;-59
2024/01/30 11:43:04;;;;;;;34.93;17.30;;;;;;;;;;5032347;28;20242;-57
2024/01/30 11:45:31;;;;;;;30.20;16.97;;;;;;;;;;5024762;28;20185;-55
2024/01/30 11:47:57;;;;;;;38.70;17.73;;;;;;;;;;5042619;28;20190;-58
2024/01/30 11:50:23;;;;;;;33.57;17.60;;;;;;;;;;5042596;28;20214;-60
2024/01/30 11:52:49;;;;;;;35.87;17.93;;;;;;;;;;5044739;28;20194;-57
2024/01/30 11:55:15;;;;;;;32.07;15.50;;;;;;;;;;5034966;28;20692;-60
2024/01/30 11:57:42;;;;;;;31.77;17.50;;;;;;;;;;5046442;28;20184;-60
2024/01/30 12:00:15;;;;;;;35.00;17.47;;;;;;;;;;5045577;28;20187;-59
2024/01/30 12:02:41;;;;;;;29.73;16.40;;;;;;;;;;5026191;28;20179;-61
2024/01/30 12:05:07;;;;;;;36.30;15.77;;;;;;;;;;5014040;28;20210;-59
2024/01/30 12:07:33;;;;;;;34.73;16.67;;;;;;;;;;5020164;28;20184;-60
2024/01/30 12:10:00;;;;;;;35.00;17.27;;;;;;;;;;5031024;28;20220;-61
2024/01/30 12:12:26;;;;;;;37.73;20.47;;;;;;;;;;5046648;28;20188;-60
2024/01/30 12:14:52;;;;;;;38.47;20.63;;;;;;;;;;5032339;28;20177;-60
2024/01/30 12:17:45;;;;;;;31.77;17.00;;;;;;;;;;5043302;28;20670;-59
2024/01/30 12:20:11;;;;;;;32.07;16.40;;;;;;;;;;5030128;28;20569;-59
2024/01/30 12:22:38;;;;;;;31.77;17.37;;;;;;;;;;5031883;28;20195;-61
2024/01/30 12:25:05;;;;;;;28.67;15.17;;;;;;;;;;5039868;28;20187;-60
2024/01/30 12:27:31;;;;;;;33.30;16.00;;;;;;;;;;5028045;28;20190;-60
2024/01/30 12:29:58;;;;;;;28.40;14.87;;;;;;;;;;5014751;28;20231;-61
2024/01/30 12:32:24;;;;;;;31.93;15.37;;;;;;;;;;5019178;28;20210;-61
2024/01/30 12:34:50;;;;;;;27.50;14.70;;;;;;;;;;5042533;28;20186;-60
2024/01/30 12:37:22;;;;;;;29.20;14.33;;;;;;;;;;5026085;28;20187;-61
2024/01/30 12:39:48;;;;;;;35.83;15.80;;;;;;;;;;5035044;28;20239;-59
2024/01/30 12:42:14;;;;;;;29.43;15.33;;;;;;;;;;5025666;28;20292;-60
2024/01/30 12:44:41;;;;;;;30.45;15.73;;;-0.50;99.90;;;;;;5042990;28;20183;-61
2024/01/30 12:47:09;;;;;;;31.13;14.37;;;8.90;99.90;;;;;;5015088;28;20680;-61
2024/01/30 12:49:35;;;;;;;30.10;15.90;;;8.50;99.90;;;;;;5045055;28;20697;-61
2024/01/30 12:52:01;;;;;;;32.33;16.37;;;8.60;99.90;;;;;;5050624;28;20194;-60
2024/01/30 12:54:26;;;;;;;32.63;15.87;;;8.50;99.90;;;;;;5032813;28;20179;-59
2024/01/30 12:56:52;;;;;;;30.83;15.73;;;8.40;99.90;;;;;;5050143;28;20207;-59
2024/01/30 12:59:17;;;;;;;31.13;16.10;;;8.40;99.90;;;;;;5016374;28;20202;-60
2024/01/30 13:01:43;;;;;;;31.77;16.13;;;8.20;99.90;;;;;;5036181;28;20181;-61
2024/01/30 13:04:09;;;;;;;38.67;17.63;;;8.30;99.90;;;;;;5048775;28;20186;-60
2024/01/30 13:06:34;;;;;;;37.03;16.87;;;8.30;99.90;;;;;;5043726;28;20212;-61
2024/01/30 13:09:00;;;;;;;31.47;15.23;;;8.20;99.90;;;;;;5037014;28;20513;-61
2024/01/30 13:11:26;;;;;;;29.87;15.43;;;8.30;99.90;;;;;;5020408;28;20241;-60
2024/01/30 13:13:51;;;;;;;34.73;16.37;;;8.40;99.90;;;;;;5042054;28;20254;-60
2024/01/30 13:16:17;;;;;;;41.37;16.70;;;8.30;99.90;;;;;;5016130;28;20302;-60
2024/01/30 13:18:44;;;;;;;36.00;16.20;;;8.40;99.90;;;;;;5041411;28;20314;-59
2024/01/30 13:21:09;;;;;;;28.73;15.63;;;8.50;99.90;;;;;;5028336;28;20243;-61
2024/01/30 13:23:35;;;;;;;30.33;14.97;;;8.50;99.90;;;;;;5022638;28;20187;-59
2024/01/30 13:26:01;;;;;;;32.10;15.30;;;8.50;99.90;;;;;;5020302;28;20187;-61
2024/01/30 13:28:26;;;;;;;25.67;14.07;;;8.50;99.90;;;;;;5028407;28;20206;-60
2024/01/30 13:30:52;;;;;;;40.13;16.13;;;8.60;99.90;;;;;;5049341;28;20242;-58
2024/01/30 13:33:17;;;;;;;30.30;14.30;;;8.60;99.90;;;;;;5031968;28;20552;-61
2024/01/30 13:35:43;;;;;;;36.53;15.73;;;8.70;99.90;;;;;;5000406;28;21000;-61
2024/01/30 13:38:09;;;;;;;44.40;16.10;;;8.60;99.90;;;;;;5037123;28;20200;-61
2024/01/30 13:40:34;;;;;;;29.40;15.30;;;8.60;99.90;;;;;;5044206;28;20179;-60
2024/01/30 13:43:00;;;;;;;31.40;14.90;;;8.60;99.90;;;;;;5025065;28;20199;-61
2024/01/30 13:45:26;;;;;;;30.07;14.73;;;8.60;99.90;;;;;;5049285;28;20192;-61
2024/01/30 13:47:51;;;;;;;37.07;15.83;;;8.50;99.90;;;;;;5041133;28;20201;-60
2024/01/30 13:50:17;;;;;;;29.03;14.43;;;8.40;99.90;;;;;;5040856;28;20250;-61
2024/01/30 13:52:43;;;;;;;28.17;14.27;;;8.30;99.90;;;;;;5020652;28;20188;-61
2024/01/30 13:55:09;;;;;;;29.07;15.33;;;8.30;99.90;;;;;;5031942;28;20216;-60
2024/01/30 13:57:36;;;;;;;29.63;14.97;;;8.40;99.90;;;;;;5034856;28;20237;-58
2024/01/30 14:00:09;;;;;;;25.20;13.73;;;8.40;99.90;;;;;;5021352;28;20375;-57
2024/01/30 14:02:34;;;;;;;27.73;14.70;;;8.40;99.90;;;;;;5043713;28;20647;-59